Detall de PIREP

Printer-friendly versionPDF version

[2011/11/15 11:55:00]
Flight IATA:CT3110
Pilot Number:011
Company ICAO:CAT
Aircraft Type:B738/F
PAX:160
Departing Airport: LEBL
Destination Airport: LEPA
Alternate Airport:LEBL
Online: VATSIM
Route:LARPA B31 TOLSO
Flight Level:F170
No Slew and time accel
No pause
Crash detect
Detect pilot in Cockpit between each 30 and 45 minutes
11:55 Zero fuel Weight: 136990 Lbs, Fuel Weight: 10074 Lbs
11:55 VATSIM:LEBL 151138Z 09017G28KT 1500 R07L/0750VP2000D SHRA SCT010CB BKN025 17/16 Q1012 NOSIG
11:55 VATSIM:LEPA 151148Z 18006G22KT 140V220 7000 TS FEW018CB SCT022 15/15 Q1012 NOSIG
11:56 Parking Brakes off
12:12 Take-off
12:12 Take off Weight: 145806 Lbs
12:12 Wind: 082º @ 016 Knots Heading: 066º
12:12 POS N41º 17´ 23´´ E002º 05´ 46´´
12:12 Flaps:5 at 213 Knots
12:13 Gear Up: 266 Knots
12:14 Flaps:6 at 321 Knots
12:14 Flaps:5 at 321 Knots
12:14 Flaps:4 at 323 Knots
12:14 Flaps:3 at 376 Knots
12:14 Flaps:2 at 382 Knots
12:14 Flaps:1 at 377 Knots
12:14 Flaps:0 at 373 Knots
12:23 TOC
12:23 Fuel Weight: 6427 Lb
12:23 TOD
12:23 Fuel Weight: 6359 Lb
12:27 Wind:105º@013 Knots Heading: 121º Ground Speed: 315 Knots Altitude 11115 ft
12:34 Flaps:1 at 247 Knots
12:34 Flaps:2 at 246 Knots
12:34 Flaps:3 at 243 Knots
12:35 Flaps:4 at 216 Knots
12:36 Flaps:5 at 189 Knots
12:37 Flaps:6 at 174 Knots
12:37 Gear Down: 173 Knots
12:38 Flaps:7 at 148 Knots
12:39 Flaps:8 at 141 Knots
12:42 Wind:352º@005 Knots Heading: 241º Ground Speed: 126 Knots Altitude 045 ft
12:43 Gear Up: 127 Knots
12:50 Gear Down: 146 Knots
12:52 Gear Up: 134 Knots
12:52 Gear Down: 134 Knots
12:55 TouchDown:Rate -43 ft/min Speed: 121 Knots
12:55 VATSIM:LEPA 151230Z 35005KT 320V020 9999 FEW016 ///// Q1011 NOSIG
12:55 Land
12:55 Wind:352º@005 Knots
12:55 Heading: 240º
12:55 Flight Duration: 00:43
12:55 Landing Weight: 139017 Lbs
12:55 POS N39º 33´ 19´´ E002º 43´ 40´´
12:59 Parking brakes on
12:59 Block to Block Duration: 01:03
12:59 Final Fuel: 1715 Lbls
12:59 Spent Fuel: 8359 Lbls
12:59 Flight Length: 168 NM
12:59 TOD Land Length: 112 NM

Exportar CSV

Powered by Drupal - Modified by Danger4k